Portada
METAR-TAF:

METAR-TAF

Aeroports :

Fort Rucker, Alabama, Estats Units d'Amèrica

latitud: 31-21N, longitud: 085-40W, altitud: 97 m

Observació

L'informe es va fer fa 32 minuts, a les 05:20 UTC
Vent 3 kt del Nord/Nord-Oest
Temperatura 21°C
Humitat 56%
Pressió 1020 hPa
Visibilitat: 6.4 km
Cel cobert a una alçada de 4200 ft
calitja

METAR: KHEY 300520Z AUTO 34003KT 4SM HZ OVC042 21/12 A3013 RMK AO2 SLP203

Hora: 00:52 (05:52 UTC)


TAF: manca

Observacions i pronòstics meteorològics de més de 4000 aeroports (METAR i TAF).

Les estacions disponibles són els punts grocs i vermells al mapa.

Posi el ratolí al punt desitjat per veure el nom de l'estació.

Feu clic per veure les observacions i els pronòstics meteorològics.

Per canviar el mapa: feu clic els botons verds amb una creu de color negre per apropar; al botó verd amb un guió per allunyar la imatge; o en les fletxes verdes per a mapes adjacents.


METAR-TAF: